Terminal Aerodrome Forecast
Issued by NWS

Home | Current Version | Previous Version | Graphics & Text | Print | Product List | Glossary On
Versions: 1 2 3 4 5 6 7 8 9 10 11 12 13 14 15 16 17 18 19
000
FTUS42 KMHX 271100
TAFISO
TAF
KISO 271137Z 2712/2812 21005KT 4SM BR BKN250
     FM271245 24008KT P6SM SCT040 BKN250
     FM271900 23010G15KT P6SM VCTS BKN040CB BKN250
     FM272300 24008KT P6SM BKN040
     FM280100 20010KT P6SM BKN100
      AMD LTD TO CLD VIS AND WIND=

USA.gov is the U.S. government's official web portal to all federal, state and local government web resources and services.